Time;durP1;ratioP1;P1;durP2;ratioP2;P2;SDS_P1;SDS_P2;PMS_P1;PMS_P2;Temp;Humidity;BMP_temperature;BMP_pressure;BME280_temperature;BME280_humidity;BME280_pressure;Samples;Min_cycle;Max_cycle;Signal;HPM_P1;HPM_P2
2021/09/09 00:00:53;;;;;;;7.43;5.78;;;;;;;;;;4968112;28;20102;-59
2021/09/09 00:03:18;;;;;;;10.40;5.35;;;;;;;;;;4956514;28;20511;-59
2021/09/09 00:05:46;;;;;;;7.70;5.45;;;;;;;;;;4956379;28;20041;-59
2021/09/09 00:08:11;;;;;;;8.93;6.22;;;;;;;;;;4957294;28;20015;-60
2021/09/09 00:10:40;;;;;;;6.93;5.70;;;;;;;;;;4956428;28;20011;-57
2021/09/09 00:13:05;;;;;;;7.63;5.90;;;;;;;;;;4955022;28;20274;-60
2021/09/09 00:15:30;;;;;;;8.87;5.67;;;;;;;;;;4956023;28;20118;-57
2021/09/09 00:17:55;;;;;;;7.43;5.93;;;;;;;;;;4956218;28;20278;-60
2021/09/09 00:20:21;;;;;;;8.30;5.93;;;;;;;;;;4955309;28;20066;-60
2021/09/09 00:22:49;;;;;;;6.30;5.63;;;;;;;;;;4956280;28;20027;-60
2021/09/09 00:25:14;;;;;;;6.97;5.50;;;;;;;;;;4954935;29;20076;-60
2021/09/09 00:27:40;;;;;;;6.47;5.30;;;;;;;;;;4954035;28;20027;-56
2021/09/09 00:30:06;;;;;;;7.07;5.45;;;;;;;;;;4955391;28;20330;-60
2021/09/09 00:32:31;;;;;;;6.90;5.57;;;;;;;;;;4956065;28;20011;-60
2021/09/09 00:34:56;;;;;;;6.67;5.80;;;;;;;;;;4954563;29;20023;-60
2021/09/09 00:37:24;;;;;;;7.73;5.50;;;;;;;;;;4956103;28;20266;-60
2021/09/09 00:39:55;;;;;;;9.70;5.88;;;;;;;;;;4956059;28;20270;-60
2021/09/09 00:42:20;;;;;;;7.75;5.40;;;;;;;;;;4954668;28;20031;-60
2021/09/09 00:44:52;;;;;;;13.03;5.83;;;;;;;;;;4954633;29;20363;-60
2021/09/09 00:47:17;;;;;;;8.48;6.10;;;;;;;;;;4954455;28;20707;-60
2021/09/09 00:49:45;;;;;;;7.10;5.80;;;;;;;;;;4955345;28;20058;-60
2021/09/09 00:52:26;;;;;;;12.10;5.38;;;;;;;;;;4955625;28;20270;-60
2021/09/09 00:54:54;;;;;;;6.10;5.10;;;;;;;;;;4955724;28;20023;-60
2021/09/09 00:57:19;;;;;;;9.30;5.68;;;;;;;;;;4954441;28;20026;-58
2021/09/09 00:59:45;;;;;;;7.95;5.82;;;;;;;;;;4966634;28;20031;-60
2021/09/09 01:02:11;;;;;;;7.88;5.30;;;;;;;;;;4955720;28;20131;-59
2021/09/09 01:04:42;;;;;;;7.63;5.13;;;;;;;;;;4955513;28;20034;-60
2021/09/09 01:07:08;;;;;;;6.30;5.45;;;;;;;;;;4956550;28;20027;-60
2021/09/09 01:09:40;;;;;;;7.10;5.43;;;;;;;;;;4954965;28;20019;-60
2021/09/09 01:12:05;;;;;;;8.70;5.22;;;;;;;;;;4960433;28;20073;-58
2021/09/09 01:14:30;;;;;;;9.73;5.97;;;;;;;;;;4974112;28;20494;-54
2021/09/09 01:16:55;;;;;;;6.77;5.47;;;;;;;;;;4973187;28;20014;-51
2021/09/09 01:19:21;;;;;;;6.57;5.28;;;;;;;;;;4973682;28;20265;-51
2021/09/09 01:21:52;;;;;;;6.40;5.38;;;;;;;;;;4987597;28;20406;-48
2021/09/09 01:24:18;;;;;;;8.98;4.88;;;;;;;;;;4956895;28;20487;-51
2021/09/09 01:26:55;;;;;;;10.73;5.50;;;;;;;;;;4955727;28;20019;-52
2021/09/09 01:29:21;;;;;;;7.68;5.55;;;;;;;;;;4954529;28;20023;-50
2021/09/09 01:31:46;;;;;;;6.00;5.20;;;;;;;;;;4957794;28;20019;-53
2021/09/09 01:34:12;;;;;;;7.75;5.15;;;;;;;;;;4962253;28;20102;-48
2021/09/09 01:36:37;;;;;;;5.88;4.88;;;;;;;;;;4955652;28;20467;-53
2021/09/09 01:39:02;;;;;;;8.47;5.23;;;;;;;;;;4955461;28;20090;-48
2021/09/09 01:41:28;;;;;;;8.70;4.80;;;;;;;;;;4955311;28;20275;-48
2021/09/09 01:43:55;;;;;;;6.50;4.67;;;;;;;;;;4955441;28;20286;-54
2021/09/09 01:46:21;;;;;;;5.53;4.55;;;;;;;;;;4955479;28;20634;-48
2021/09/09 01:48:46;;;;;;;8.47;5.57;;;;;;;;;;4956743;28;20107;-49
2021/09/09 01:51:11;;;;;;;5.85;4.63;;;;;;;;;;4957271;28;20286;-49
2021/09/09 01:53:39;;;;;;;6.25;5.07;;;;;;;;;;4955987;28;20023;-54
2021/09/09 01:56:05;;;;;;;5.82;4.45;;;;;;;;;;4955002;28;20106;-53
2021/09/09 01:58:30;;;;;;;6.07;4.97;;;;;;;;;;4955261;28;20082;-51
2021/09/09 02:00:57;;;;;;;8.00;5.00;;;;;;;;;;4955405;28;20274;-47
2021/09/09 02:03:23;;;;;;;7.55;5.13;;;;;;;;;;4953937;28;20282;-48
2021/09/09 02:05:49;;;;;;;8.85;4.90;;;;;;;;;;4953868;28;20030;-49
2021/09/09 02:08:20;;;;;;;7.17;5.30;;;;;;;;;;4955055;28;20043;-51
2021/09/09 02:10:45;;;;;;;7.15;4.97;;;;;;;;;;4954736;28;20306;-48
2021/09/09 02:13:16;;;;;;;6.80;5.43;;;;;;;;;;4954038;29;20019;-50
2021/09/09 02:15:47;;;;;;;5.70;4.88;;;;;;;;;;4956406;28;20274;-49
2021/09/09 02:18:15;;;;;;;5.20;4.65;;;;;;;;;;4965219;28;20495;-48
2021/09/09 02:20:41;;;;;;;7.00;4.85;;;;;;;;;;4954821;28;20031;-48
2021/09/09 02:23:06;;;;;;;5.63;4.47;;;;;;;;;;4957676;28;20015;-48
2021/09/09 02:25:38;;;;;;;5.93;5.15;;;;;;;;;;4958626;28;20557;-51
2021/09/09 02:28:06;;;;;;;6.82;5.25;;;;;;;;;;4953552;29;20478;-49
2021/09/09 02:30:31;;;;;;;6.97;4.60;;;;;;;;;;4954624;28;20031;-48
2021/09/09 02:32:56;;;;;;;5.43;4.60;;;;;;;;;;4954709;28;20029;-48
2021/09/09 02:35:22;;;;;;;5.97;4.63;;;;;;;;;;4954570;28;20266;-49
2021/09/09 02:37:47;;;;;;;5.60;4.32;;;;;;;;;;4953158;28;20259;-50
2021/09/09 02:40:14;;;;;;;6.63;4.40;;;;;;;;;;4954540;28;20023;-48
2021/09/09 02:42:42;;;;;;;5.55;4.15;;;;;;;;;;4953249;29;20023;-50
2021/09/09 02:45:13;;;;;;;5.80;4.80;;;;;;;;;;4954283;29;20082;-51
2021/09/09 02:47:42;;;;;;;5.57;4.72;;;;;;;;;;4954557;28;20025;-51
2021/09/09 02:50:10;;;;;;;5.95;4.90;;;;;;;;;;4958184;28;20030;-48
2021/09/09 02:52:35;;;;;;;6.28;5.07;;;;;;;;;;4973076;28;20385;-47
2021/09/09 02:55:03;;;;;;;5.63;4.83;;;;;;;;;;4956299;28;20103;-48
2021/09/09 02:57:29;;;;;;;6.47;5.00;;;;;;;;;;4954576;28;20038;-52
2021/09/09 02:59:54;;;;;;;5.63;4.53;;;;;;;;;;4954066;28;20470;-48
2021/09/09 03:02:28;;;;;;;6.82;4.78;;;;;;;;;;4954372;28;20276;-49
2021/09/09 03:04:53;;;;;;;6.13;4.63;;;;;;;;;;4953924;28;20023;-50
2021/09/09 03:07:22;;;;;;;6.10;5.10;;;;;;;;;;4954307;28;20561;-52
2021/09/09 03:09:47;;;;;;;6.40;5.05;;;;;;;;;;4953090;28;20383;-49
2021/09/09 03:12:12;;;;;;;6.28;5.13;;;;;;;;;;4971614;28;20019;-48
2021/09/09 03:14:38;;;;;;;6.63;4.70;;;;;;;;;;4970999;28;20506;-48
2021/09/09 03:17:06;;;;;;;6.43;4.72;;;;;;;;;;4956896;28;20786;-49
2021/09/09 03:19:43;;;;;;;6.38;4.72;;;;;;;;;;4952829;28;20031;-48
2021/09/09 03:22:09;;;;;;;5.82;5.03;;;;;;;;;;4953350;28;20158;-47
2021/09/09 03:24:37;;;;;;;6.13;5.00;;;;;;;;;;4953300;28;20090;-49
2021/09/09 03:27:05;;;;;;;6.43;4.95;;;;;;;;;;4954061;28;20024;-48
2021/09/09 03:29:33;;;;;;;7.28;5.32;;;;;;;;;;4961541;28;20027;-48
2021/09/09 03:32:02;;;;;;;6.85;5.10;;;;;;;;;;4951739;28;20028;-48
2021/09/09 03:34:30;;;;;;;7.47;5.70;;;;;;;;;;4951902;29;20075;-48
2021/09/09 03:36:55;;;;;;;7.00;4.97;;;;;;;;;;4952960;28;20541;-55
2021/09/09 03:39:23;;;;;;;7.25;5.43;;;;;;;;;;4952015;28;20027;-48
2021/09/09 03:41:54;;;;;;;7.25;5.07;;;;;;;;;;4952755;28;20089;-50
2021/09/09 03:44:20;;;;;;;7.18;5.20;;;;;;;;;;4955650;28;20393;-50
2021/09/09 03:46:45;;;;;;;8.83;5.20;;;;;;;;;;4987580;28;20023;-53
2021/09/09 03:49:10;;;;;;;7.93;5.47;;;;;;;;;;4960377;28;20282;-51
2021/09/09 03:51:42;;;;;;;7.75;5.35;;;;;;;;;;4951609;28;20019;-49
2021/09/09 03:54:07;;;;;;;8.27;5.45;;;;;;;;;;4951787;29;20071;-48
2021/09/09 03:56:32;;;;;;;7.70;5.20;;;;;;;;;;4951734;29;20058;-52
2021/09/09 03:58:58;;;;;;;6.43;5.40;;;;;;;;;;4952965;28;20263;-47
2021/09/09 04:01:23;;;;;;;5.93;5.30;;;;;;;;;;4951387;29;20784;-48
2021/09/09 04:03:48;;;;;;;6.90;5.20;;;;;;;;;;4954426;28;20314;-52
2021/09/09 04:06:13;;;;;;;7.10;5.40;;;;;;;;;;4956499;28;20733;-51
2021/09/09 04:08:39;;;;;;;7.47;5.30;;;;;;;;;;4956514;28;20542;-50
2021/09/09 04:11:04;;;;;;;7.18;5.85;;;;;;;;;;4957845;28;20033;-48
2021/09/09 04:13:29;;;;;;;8.65;5.93;;;;;;;;;;4966338;28;20019;-54
2021/09/09 04:15:54;;;;;;;6.28;5.45;;;;;;;;;;4955861;28;20055;-56
2021/09/09 04:18:20;;;;;;;6.50;5.13;;;;;;;;;;4959249;28;20082;-48
2021/09/09 04:20:45;;;;;;;7.10;6.03;;;;;;;;;;4960793;28;20267;-49
2021/09/09 04:23:10;;;;;;;9.03;6.03;;;;;;;;;;4955414;29;20023;-48
2021/09/09 04:25:35;;;;;;;6.37;5.57;;;;;;;;;;4956130;28;20263;-49
2021/09/09 04:28:04;;;;;;;7.30;5.93;;;;;;;;;;4956094;28;20270;-53
2021/09/09 04:30:35;;;;;;;6.88;5.68;;;;;;;;;;4955595;28;20341;-50
2021/09/09 04:33:12;;;;;;;6.47;5.80;;;;;;;;;;4956314;28;20439;-55
2021/09/09 04:35:37;;;;;;;6.38;5.75;;;;;;;;;;4956121;28;20023;-55
2021/09/09 04:38:09;;;;;;;6.63;5.30;;;;;;;;;;4954756;28;20031;-52
2021/09/09 04:40:34;;;;;;;6.43;5.57;;;;;;;;;;4955395;28;20275;-50
2021/09/09 04:43:00;;;;;;;8.52;5.72;;;;;;;;;;4955927;28;20034;-51
2021/09/09 04:45:25;;;;;;;6.50;5.25;;;;;;;;;;4959297;28;20019;-57
2021/09/09 04:47:51;;;;;;;7.68;5.45;;;;;;;;;;4965495;28;20364;-52
2021/09/09 04:50:16;;;;;;;6.57;5.22;;;;;;;;;;4955176;28;20035;-48
2021/09/09 04:52:41;;;;;;;6.43;5.43;;;;;;;;;;4955829;28;20024;-51
2021/09/09 04:55:06;;;;;;;6.03;5.20;;;;;;;;;;4954426;29;20346;-55
2021/09/09 04:57:32;;;;;;;8.75;5.15;;;;;;;;;;4955608;28;20023;-54
2021/09/09 04:59:57;;;;;;;7.43;5.10;;;;;;;;;;4953911;29;20031;-55
2021/09/09 05:02:22;;;;;;;6.22;5.47;;;;;;;;;;4954494;29;20475;-50
2021/09/09 05:04:47;;;;;;;7.32;5.47;;;;;;;;;;4954232;29;20023;-48
2021/09/09 05:07:13;;;;;;;7.23;5.47;;;;;;;;;;4955486;28;20466;-53
2021/09/09 05:09:38;;;;;;;6.28;5.55;;;;;;;;;;4954947;28;20682;-48
2021/09/09 05:12:03;;;;;;;6.50;5.80;;;;;;;;;;4958487;28;20061;-50
2021/09/09 05:14:32;;;;;;;8.63;5.50;;;;;;;;;;4963146;28;20411;-47
2021/09/09 05:16:57;;;;;;;8.52;5.25;;;;;;;;;;4954091;29;20026;-49
2021/09/09 05:19:22;;;;;;;9.23;5.67;;;;;;;;;;4954327;28;20031;-51
2021/09/09 05:21:51;;;;;;;10.48;5.63;;;;;;;;;;4954830;28;20275;-49
2021/09/09 05:24:22;;;;;;;6.80;5.75;;;;;;;;;;4953946;29;20027;-50
2021/09/09 05:26:47;;;;;;;10.00;5.72;;;;;;;;;;4955049;28;20032;-48
2021/09/09 05:29:12;;;;;;;9.33;5.73;;;;;;;;;;4954945;28;20472;-47
2021/09/09 05:31:38;;;;;;;6.25;5.30;;;;;;;;;;4954570;28;20270;-52
2021/09/09 05:34:03;;;;;;;8.93;5.50;;;;;;;;;;4954861;28;20034;-47
2021/09/09 05:36:35;;;;;;;7.23;5.47;;;;;;;;;;4954841;28;20357;-47
2021/09/09 05:39:00;;;;;;;7.97;6.15;;;;;;;;;;4954835;28;20267;-48
2021/09/09 05:41:26;;;;;;;8.88;5.40;;;;;;;;;;4954309;28;20109;-48
2021/09/09 05:43:54;;;;;;;9.17;5.60;;;;;;;;;;4954864;28;20077;-47
2021/09/09 05:46:19;;;;;;;6.50;5.35;;;;;;;;;;4954647;28;20263;-47
2021/09/09 05:48:44;;;;;;;6.53;5.33;;;;;;;;;;4937458;29;20041;-52
2021/09/09 05:51:17;;;;;;;6.20;4.95;;;;;;;;;;4954248;28;20271;-50
2021/09/09 05:53:42;;;;;;;5.80;5.20;;;;;;;;;;4954560;28;20030;-50
2021/09/09 05:56:10;;;;;;;6.10;5.10;;;;;;;;;;4953442;28;20031;-48
2021/09/09 05:58:38;;;;;;;7.45;5.32;;;;;;;;;;4953304;29;20019;-48
2021/09/09 06:01:03;;;;;;;7.85;5.20;;;;;;;;;;4960448;28;20054;-48
2021/09/09 06:03:30;;;;;;;6.33;5.37;;;;;;;;;;4973780;28;20011;-49
2021/09/09 06:06:02;;;;;;;5.97;5.07;;;;;;;;;;4973783;28;20316;-51
2021/09/09 06:08:28;;;;;;;5.22;4.45;;;;;;;;;;4973528;28;20399;-48
2021/09/09 06:10:56;;;;;;;7.40;5.10;;;;;;;;;;4972118;28;20030;-48
2021/09/09 06:13:21;;;;;;;7.03;5.20;;;;;;;;;;4970605;28;20019;-54
2021/09/09 06:15:56;;;;;;;7.10;5.10;;;;;;;;;;4952551;29;20054;-47
2021/09/09 06:18:24;;;;;;;6.00;4.90;;;;;;;;;;4953301;28;20330;-47
2021/09/09 06:20:55;;;;;;;6.60;4.75;;;;;;;;;;4953671;28;20059;-47
2021/09/09 06:23:23;;;;;;;12.20;4.93;;;;;;;;;;4954204;28;20026;-50
2021/09/09 06:25:48;;;;;;;5.75;4.95;;;;;;;;;;4978329;28;20443;-49
2021/09/09 06:28:13;;;;;;;5.40;4.40;;;;;;;;;;4956582;28;20458;-49
2021/09/09 06:30:42;;;;;;;6.47;4.55;;;;;;;;;;4953452;28;20278;-51
2021/09/09 06:33:07;;;;;;;6.97;5.38;;;;;;;;;;4953778;28;20027;-51
2021/09/09 06:35:43;;;;;;;8.10;5.40;;;;;;;;;;4953882;28;20062;-49
2021/09/09 06:38:08;;;;;;;6.47;4.43;;;;;;;;;;4953819;28;20614;-49
2021/09/09 06:40:34;;;;;;;5.80;5.00;;;;;;;;;;4953301;28;20106;-47
2021/09/09 06:42:59;;;;;;;7.72;4.97;;;;;;;;;;4953695;28;20027;-50
2021/09/09 06:45:24;;;;;;;6.30;4.57;;;;;;;;;;4953823;28;20089;-53
2021/09/09 06:47:52;;;;;;;5.85;4.60;;;;;;;;;;4953728;28;20262;-47
2021/09/09 06:50:27;;;;;;;5.47;4.75;;;;;;;;;;4953187;28;20035;-51
2021/09/09 06:52:52;;;;;;;5.97;4.40;;;;;;;;;;4952544;29;20102;-47
2021/09/09 06:55:17;;;;;;;9.47;4.77;;;;;;;;;;4953585;28;20186;-49
2021/09/09 06:57:48;;;;;;;6.73;4.70;;;;;;;;;;4953670;28;20270;-50
2021/09/09 07:00:13;;;;;;;7.30;4.15;;;;;;;;;;4953047;28;20737;-50
2021/09/09 07:02:39;;;;;;;7.45;4.10;;;;;;;;;;4924666;28;20135;-54
2021/09/09 07:05:11;;;;;;;6.33;4.43;;;;;;;;;;4952145;29;20062;-50
2021/09/09 07:07:39;;;;;;;7.40;4.50;;;;;;;;;;4958970;28;20723;-54
2021/09/09 07:10:11;;;;;;;9.40;4.22;;;;;;;;;;4970595;28;20078;-53
2021/09/09 07:12:42;;;;;;;6.97;4.20;;;;;;;;;;4972731;28;20018;-52
2021/09/09 07:15:10;;;;;;;8.13;4.35;;;;;;;;;;4942125;28;20441;-60
2021/09/09 07:17:36;;;;;;;7.85;4.57;;;;;;;;;;4971714;28;20025;-60
2021/09/09 07:20:02;;;;;;;6.63;4.18;;;;;;;;;;4971798;28;20534;-55
2021/09/09 07:22:27;;;;;;;5.70;4.28;;;;;;;;;;4952946;29;20038;-60
2021/09/09 07:24:55;;;;;;;5.97;4.27;;;;;;;;;;4954288;28;20428;-58
2021/09/09 07:27:24;;;;;;;5.25;4.15;;;;;;;;;;4953984;28;20023;-58
2021/09/09 07:29:52;;;;;;;5.45;4.15;;;;;;;;;;4953926;28;20039;-60
2021/09/09 07:32:20;;;;;;;6.55;4.20;;;;;;;;;;4958515;28;20037;-59
2021/09/09 07:34:48;;;;;;;5.43;4.03;;;;;;;;;;4987016;28;20037;-60
2021/09/09 07:37:14;;;;;;;4.80;3.85;;;;;;;;;;4954282;28;20677;-60
2021/09/09 07:39:39;;;;;;;5.20;3.90;;;;;;;;;;4957302;28;20032;-60
2021/09/09 07:42:14;;;;;;;6.97;3.93;;;;;;;;;;4956646;29;20270;-59
2021/09/09 07:44:39;;;;;;;5.60;3.95;;;;;;;;;;4956346;28;20270;-57
2021/09/09 07:47:05;;;;;;;5.37;3.87;;;;;;;;;;4957628;28;20526;-60
2021/09/09 07:49:31;;;;;;;4.45;3.72;;;;;;;;;;4960628;28;20105;-60
2021/09/09 07:51:56;;;;;;;4.30;3.90;;;;;;;;;;4957765;28;20606;-60
2021/09/09 07:54:21;;;;;;;4.30;3.90;;;;;;;;;;4957747;28;20047;-58
2021/09/09 07:56:49;;;;;;;7.50;4.35;;;;;;;;;;4957837;28;20273;-60
2021/09/09 07:59:15;;;;;;;4.00;3.60;;;;;;;;;;4957531;28;20023;-60
2021/09/09 08:01:40;;;;;;;4.82;3.90;;;;;;;;;;4956530;28;20023;-60
2021/09/09 08:04:06;;;;;;;4.13;3.72;;;;;;;;;;4957423;28;20045;-60
2021/09/09 08:06:31;;;;;;;6.70;3.97;;;;;;;;;;4956228;29;20070;-60
2021/09/09 08:08:56;;;;;;;5.25;4.05;;;;;;;;;;4957203;28;20034;-60
2021/09/09 08:11:25;;;;;;;6.03;4.23;;;;;;;;;;4956009;29;20490;-60
2021/09/09 08:13:52;;;;;;;6.45;3.90;;;;;;;;;;4957016;28;20011;-57
2021/09/09 08:16:20;;;;;;;4.25;3.85;;;;;;;;;;4962783;28;20051;-59
2021/09/09 08:18:46;;;;;;;5.47;4.28;;;;;;;;;;4963696;28;20023;-57
2021/09/09 08:21:20;;;;;;;5.28;4.43;;;;;;;;;;4957245;28;20034;-60
2021/09/09 08:23:45;;;;;;;4.45;3.97;;;;;;;;;;4962670;28;20069;-60
2021/09/09 08:26:11;;;;;;;4.65;4.13;;;;;;;;;;4957140;28;20094;-60
2021/09/09 08:28:36;;;;;;;5.93;4.47;;;;;;;;;;4956800;28;20126;-60
2021/09/09 08:31:05;;;;;;;5.30;4.25;;;;;;;;;;4956947;28;20607;-60
2021/09/09 08:33:33;;;;;;;4.60;4.18;;;;;;;;;;4956877;28;20022;-60
2021/09/09 08:36:08;;;;;;;4.90;4.05;;;;;;;;;;4956778;28;20439;-60
2021/09/09 08:38:33;;;;;;;5.95;4.32;;;;;;;;;;4956761;28;20482;-60
2021/09/09 08:41:00;;;;;;;5.78;4.03;;;;;;;;;;4956712;28;20062;-60
2021/09/09 08:43:25;;;;;;;5.15;4.05;;;;;;;;;;4955501;29;20070;-60
2021/09/09 08:45:51;;;;;;;4.72;4.00;;;;;;;;;;4956776;28;20023;-60
2021/09/09 08:48:17;;;;;;;5.25;3.83;;;;;;;;;;4955444;28;20398;-60
2021/09/09 08:50:59;;;;;;;7.07;4.10;;;;;;;;;;4963881;28;20026;-60
2021/09/09 08:53:25;;;;;;;;;;;;;;;;;;4971025;28;20114;-60
2021/09/09 08:55:50;;;;;;;6.57;4.25;;;;;;;;;;4956544;28;19993;-60
2021/09/09 08:58:16;;;;;;;6.35;3.85;;;;;;;;;;4955206;29;20587;-61
2021/09/09 09:01:00;;;;;;;5.00;3.78;;;;;;;;;;4956615;28;20020;-60
2021/09/09 09:03:41;;;;;;;7.28;4.20;;;;;;;;;;4956453;28;20035;-60
2021/09/09 09:06:21;;;;;;;11.18;4.32;;;;;;;;;;4956285;28;20031;-60
2021/09/09 09:08:50;;;;;;;4.38;3.97;;;;;;;;;;4956255;28;20495;-61
2021/09/09 09:11:22;;;;;;;6.38;4.00;;;;;;;;;;4955024;29;20019;-60
2021/09/09 09:13:54;;;;;;;4.82;3.97;;;;;;;;;;4969566;28;20027;-60
2021/09/09 09:16:20;;;;;;;5.35;4.15;;;;;;;;;;4959735;28;20046;-60
2021/09/09 09:18:46;;;;;;;4.65;4.10;;;;;;;;;;4954888;28;20118;-60
2021/09/09 09:21:18;;;;;;;6.78;5.00;;;;;;;;;;4973423;28;20431;-61
2021/09/09 09:23:46;;;;;;;5.53;3.92;;;;;;;;;;4971460;28;20116;-58
2021/09/09 09:26:12;;;;;;;5.78;4.00;;;;;;;;;;4990081;28;20122;-60
2021/09/09 09:28:48;;;;;;;6.45;4.03;;;;;;;;;;4975086;28;20098;-60
2021/09/09 09:31:16;;;;;;;3.75;3.45;;;;;;;;;;4975110;28;20039;-60
2021/09/09 09:33:56;;;;;;;4.32;3.60;;;;;;;;;;4975218;28;20023;-60
2021/09/09 09:36:28;;;;;;;5.22;3.60;;;;;;;;;;4974822;28;20034;-60
2021/09/09 09:39:09;;;;;;;4.63;3.63;;;;;;;;;;4960453;28;20030;-60
2021/09/09 09:41:39;;;;;;;5.53;3.75;;;;;;;;;;4955705;28;20027;-60
2021/09/09 09:44:08;;;;;;;4.72;3.65;;;;;;;;;;4955523;28;20031;-60
2021/09/09 09:46:42;;;;;;;5.50;3.80;;;;;;;;;;4955648;28;20093;-59
2021/09/09 09:49:25;;;;;;;5.35;3.55;;;;;;;;;;4953942;29;20427;-60
2021/09/09 09:51:50;;;;;;;;;;;;;;;;;;4954577;28;20087;-60
2021/09/09 09:54:16;;;;;;;7.10;3.63;;;;;;;;;;4958688;28;20377;-60
2021/09/09 09:56:45;;;;;;;5.95;3.95;;;;;;;;;;4955587;28;20106;-61
2021/09/09 09:59:11;;;;;;;4.10;3.65;;;;;;;;;;4955407;28;20033;-60
2021/09/09 10:01:36;;;;;;;5.78;3.70;;;;;;;;;;4954937;28;20534;-60
2021/09/09 10:04:03;;;;;;;4.95;3.92;;;;;;;;;;4953981;29;20046;-58
2021/09/09 10:06:30;;;;;;;5.32;3.72;;;;;;;;;;4955172;28;20016;-61
2021/09/09 10:08:55;;;;;;;4.35;3.95;;;;;;;;;;4955003;28;20042;-60
2021/09/09 10:11:21;;;;;;;16.90;4.43;;;;;;;;;;4953838;28;20023;-60
2021/09/09 10:13:49;;;;;;;6.43;3.77;;;;;;;;;;4955239;28;20023;-60
2021/09/09 10:16:16;;;;;;;5.40;3.78;;;;;;;;;;4953510;28;20801;-61
2021/09/09 10:18:42;;;;;;;7.22;3.83;;;;;;;;;;4955389;28;20503;-59
2021/09/09 10:21:07;;;;;;;5.00;3.78;;;;;;;;;;4962933;28;20101;-60
2021/09/09 10:23:33;;;;;;;5.22;4.72;;;;;;;;;;4956264;28;20087;-61
2021/09/09 10:25:58;;;;;;;4.65;4.13;;;;;;;;;;4954813;28;20026;-60
2021/09/09 10:28:48;;;;;;;6.07;4.85;;;;;;;;;;4890848;28;62935;-60
2021/09/09 10:31:21;;;;;;;5.03;4.20;;;;;;;;;;4958423;28;20108;-60
2021/09/09 10:33:50;;;;;;;5.72;4.22;;;;;;;;;;4954864;28;20514;-60
2021/09/09 10:36:41;;;;;;;4.43;4.03;;;;;;;;;;4953433;29;20030;-60
2021/09/09 10:39:07;;;;;;;4.90;4.40;;;;;;;;;;4954560;28;20477;-60
2021/09/09 10:41:35;;;;;;;4.95;4.10;;;;;;;;;;4954705;28;20035;-60
2021/09/09 10:44:02;;;;;;;4.80;4.35;;;;;;;;;;4954456;28;20086;-60
2021/09/09 10:46:32;;;;;;;7.07;4.45;;;;;;;;;;4953414;28;20442;-61
2021/09/09 10:49:13;;;;;;;5.38;4.43;;;;;;;;;;4954462;28;20393;-60
2021/09/09 10:51:57;;;;;;;5.83;4.40;;;;;;;;;;4954512;28;20016;-60
2021/09/09 10:54:22;;;;;;;4.68;4.22;;;;;;;;;;4956088;28;20479;-60
2021/09/09 10:56:48;;;;;;;8.13;5.07;;;;;;;;;;4973984;28;20050;-60
2021/09/09 10:59:20;;;;;;;5.72;4.43;;;;;;;;;;4956763;28;20290;-60
2021/09/09 11:01:46;;;;;;;5.32;4.80;;;;;;;;;;4952150;29;20049;-60
2021/09/09 11:04:37;;;;;;;7.32;5.25;;;;;;;;;;4953279;28;20023;-60
2021/09/09 11:07:19;;;;;;;5.43;4.90;;;;;;;;;;4955426;28;20058;-60
2021/09/09 11:09:45;;;;;;;8.77;4.80;;;;;;;;;;4952026;28;20027;-60
2021/09/09 11:12:10;;;;;;;6.43;5.07;;;;;;;;;;4953618;28;20498;-59
2021/09/09 11:14:36;;;;;;;5.30;4.80;;;;;;;;;;4954170;28;20511;-60
2021/09/09 11:17:01;;;;;;;8.02;4.55;;;;;;;;;;4954068;28;20031;-60
2021/09/09 11:19:26;;;;;;;5.88;5.18;;;;;;;;;;4954230;28;20038;-59
2021/09/09 11:21:52;;;;;;;5.50;4.93;;;;;;;;;;4965795;28;20437;-60
2021/09/09 11:24:18;;;;;;;6.20;4.70;;;;;;;;;;4954175;28;20023;-60
2021/09/09 11:26:44;;;;;;;5.50;5.00;;;;;;;;;;4953737;28;20031;-61
2021/09/09 11:29:10;;;;;;;6.18;4.90;;;;;;;;;;4964733;28;20074;-60
2021/09/09 11:31:46;;;;;;;5.88;5.22;;;;;;;;;;4954011;28;20122;-61
2021/09/09 11:34:14;;;;;;;6.28;5.60;;;;;;;;;;4961992;28;20023;-59
2021/09/09 11:36:49;;;;;;;8.52;5.70;;;;;;;;;;4972489;28;20034;-61
2021/09/09 11:39:21;;;;;;;5.65;5.03;;;;;;;;;;4973645;28;20038;-61
2021/09/09 11:41:47;;;;;;;6.00;5.32;;;;;;;;;;4973726;28;20031;-62
2021/09/09 11:44:23;;;;;;;5.53;5.03;;;;;;;;;;4972538;28;20034;-62
2021/09/09 11:46:52;;;;;;;5.85;5.13;;;;;;;;;;4973106;28;20636;-57
2021/09/09 11:49:18;;;;;;;8.07;5.50;;;;;;;;;;4964052;28;20433;-61
2021/09/09 11:51:44;;;;;;;6.30;5.65;;;;;;;;;;4968255;28;20019;-61
2021/09/09 11:54:20;;;;;;;7.55;5.50;;;;;;;;;;4969210;28;20095;-61
2021/09/09 11:56:49;;;;;;;6.13;5.53;;;;;;;;;;4960748;28;20023;-62
2021/09/09 11:59:18;;;;;;;6.68;5.22;;;;;;;;;;4959500;28;20023;-62
2021/09/09 12:02:07;;;;;;;7.07;5.47;;;;;;;;;;4960689;28;20042;-61
2021/09/09 12:04:39;;;;;;;7.57;5.43;;;;;;;;;;4971468;28;20026;-61
2021/09/09 12:07:05;;;;;;;6.70;5.78;;;;;;;;;;4967731;28;20505;-61
2021/09/09 12:09:38;;;;;;;7.07;5.10;;;;;;;;;;4971689;28;20034;-61
2021/09/09 12:12:05;;;;;;;;;;;;;;;;;;4988468;28;20394;-62
2021/09/09 12:14:43;;;;;;;5.72;5.13;;;;;;;;;;4952044;28;19919;-61
2021/09/09 12:17:14;;;;;;;6.57;5.03;;;;;;;;;;4953525;28;20062;-61
2021/09/09 12:19:56;;;;;;;7.25;5.55;;;;;;;;;;4953676;28;20069;-61
2021/09/09 12:22:40;;;;;;;6.85;5.55;;;;;;;;;;4965290;28;20483;-62
2021/09/09 12:25:35;;;;;;;7.07;5.97;;;;;;;;;;4955441;28;20027;-62
2021/09/09 12:28:07;;;;;;;6.55;5.95;;;;;;;;;;4982084;28;20042;-62
2021/09/09 12:30:52;;;;;;;7.25;6.40;;;;;;;;;;4958767;28;20483;-62
2021/09/09 12:33:28;;;;;;;6.43;5.82;;;;;;;;;;4955676;28;20039;-62
2021/09/09 12:36:23;;;;;;;8.25;6.05;;;;;;;;;;4956760;28;20027;-61
2021/09/09 12:38:52;;;;;;;6.53;5.88;;;;;;;;;;4959152;28;20078;-62
2021/09/09 12:41:20;;;;;;;6.47;5.85;;;;;;;;;;4956869;28;20386;-62
2021/09/09 12:43:51;;;;;;;9.13;6.50;;;;;;;;;;4955914;29;20019;-62
2021/09/09 12:46:25;;;;;;;9.60;6.07;;;;;;;;;;4956686;28;20027;-62
2021/09/09 12:49:03;;;;;;;7.53;5.50;;;;;;;;;;4956650;28;20029;-62
2021/09/09 12:51:31;;;;;;;7.03;6.00;;;;;;;;;;4956656;28;20379;-62
2021/09/09 12:53:59;;;;;;;7.07;5.75;;;;;;;;;;4956599;28;20550;-62
2021/09/09 12:56:25;;;;;;;8.45;5.60;;;;;;;;;;4956030;28;20467;-61
2021/09/09 12:58:50;;;;;;;8.48;5.80;;;;;;;;;;4956475;28;20035;-62
2021/09/09 13:01:21;;;;;;;9.43;6.07;;;;;;;;;;4955101;29;20074;-62
2021/09/09 13:03:54;;;;;;;7.27;5.97;;;;;;;;;;4956609;28;20261;-62
2021/09/09 13:06:31;;;;;;;6.57;5.47;;;;;;;;;;4955262;28;20015;-61
2021/09/09 13:08:56;;;;;;;10.18;6.45;;;;;;;;;;4954964;29;20039;-61
2021/09/09 13:11:22;;;;;;;6.18;5.57;;;;;;;;;;4954943;29;20015;-62
2021/09/09 13:13:48;;;;;;;7.20;6.50;;;;;;;;;;4956473;28;20097;-62
2021/09/09 13:16:19;;;;;;;9.02;6.38;;;;;;;;;;4956417;28;20294;-57
2021/09/09 13:18:47;;;;;;;11.90;6.97;;;;;;;;;;4955249;29;20035;-59
2021/09/09 13:21:29;;;;;;;7.93;5.97;;;;;;;;;;4963644;28;20545;-58
2021/09/09 13:23:55;;;;;;;8.65;5.43;;;;;;;;;;4958858;28;20019;-58
2021/09/09 13:26:23;;;;;;;7.07;6.10;;;;;;;;;;4955953;28;20439;-60
2021/09/09 13:28:48;;;;;;;7.57;5.75;;;;;;;;;;4967192;28;20035;-59
2021/09/09 13:31:19;;;;;;;7.03;5.80;;;;;;;;;;4955975;28;20101;-59
2021/09/09 13:33:44;;;;;;;7.05;5.63;;;;;;;;;;4955788;28;20263;-55
2021/09/09 13:36:10;;;;;;;6.40;5.77;;;;;;;;;;4953917;28;20030;-59
2021/09/09 13:38:38;;;;;;;7.50;5.10;;;;;;;;;;4955707;28;20749;-59
2021/09/09 13:41:04;;;;;;;6.97;6.03;;;;;;;;;;4955696;28;20382;-59
2021/09/09 13:43:38;;;;;;;6.38;5.68;;;;;;;;;;4954336;28;20117;-59
2021/09/09 13:46:05;;;;;;;7.72;5.40;;;;;;;;;;4955601;28;20046;-59
2021/09/09 13:48:30;;;;;;;15.23;6.40;;;;;;;;;;4955533;28;20041;-57
2021/09/09 13:51:01;;;;;;;7.80;6.00;;;;;;;;;;4954187;29;20390;-57
2021/09/09 13:53:26;;;;;;;7.03;5.95;;;;;;;;;;4955526;28;20362;-55
2021/09/09 13:55:53;;;;;;;7.43;6.15;;;;;;;;;;4955314;28;20052;-58
2021/09/09 13:58:18;;;;;;;9.02;6.00;;;;;;;;;;4955617;28;20482;-55
2021/09/09 14:00:43;;;;;;;6.20;5.60;;;;;;;;;;4955433;28;20067;-55
2021/09/09 14:03:08;;;;;;;6.27;5.43;;;;;;;;;;4955288;28;20051;-51
2021/09/09 14:05:35;;;;;;;6.23;5.63;;;;;;;;;;4955255;28;20023;-55
2021/09/09 14:08:00;;;;;;;5.75;5.07;;;;;;;;;;4955031;28;20033;-52
2021/09/09 14:10:29;;;;;;;6.70;5.93;;;;;;;;;;4953949;28;20030;-57
2021/09/09 14:13:06;;;;;;;6.72;5.60;;;;;;;;;;4955454;28;20475;-55
2021/09/09 14:15:37;;;;;;;5.45;4.95;;;;;;;;;;4954784;28;20043;-55
2021/09/09 14:18:03;;;;;;;5.75;5.25;;;;;;;;;;4955030;28;20027;-54
2021/09/09 14:20:31;;;;;;;5.73;5.17;;;;;;;;;;4956446;28;20038;-57
2021/09/09 14:22:56;;;;;;;5.32;4.82;;;;;;;;;;4964753;28;20035;-56
2021/09/09 14:25:24;;;;;;;6.13;4.90;;;;;;;;;;4953317;29;20280;-57
2021/09/09 14:27:50;;;;;;;8.00;4.75;;;;;;;;;;4961463;28;20026;-56
2021/09/09 14:30:17;;;;;;;5.60;5.00;;;;;;;;;;4958928;28;20517;-56
2021/09/09 14:32:42;;;;;;;6.13;4.85;;;;;;;;;;4955184;28;20329;-59
2021/09/09 14:35:08;;;;;;;7.03;5.17;;;;;;;;;;4954440;28;20028;-56
2021/09/09 14:37:33;;;;;;;5.75;5.13;;;;;;;;;;4953404;29;20050;-58
2021/09/09 14:40:01;;;;;;;4.90;4.40;;;;;;;;;;4954624;28;20035;-57
2021/09/09 14:42:33;;;;;;;5.35;4.70;;;;;;;;;;4953504;29;20053;-55
2021/09/09 14:45:04;;;;;;;4.40;4.00;;;;;;;;;;4954252;28;20030;-58
2021/09/09 14:47:29;;;;;;;4.85;4.40;;;;;;;;;;4953998;28;20356;-52
2021/09/09 14:49:55;;;;;;;4.93;4.30;;;;;;;;;;4954326;28;20041;-56